sensor_id;sensor_type;location;lat;lon;timestamp;temperature;humidity
6496;DHT22;3281;47.658;9.166;2024-02-26T00:02:10;7.70;99.90
6496;DHT22;3281;47.658;9.166;2024-02-26T00:04:37;7.80;99.90
6496;DHT22;3281;47.658;9.166;2024-02-26T00:07:03;7.80;99.90
6496;DHT22;3281;47.658;9.166;2024-02-26T00:09:30;7.80;99.90
6496;DHT22;3281;47.658;9.166;2024-02-26T00:11:58;7.90;99.90
6496;DHT22;3281;47.658;9.166;2024-02-26T00:14:25;7.90;99.90
6496;DHT22;3281;47.658;9.166;2024-02-26T00:16:51;7.90;99.90
6496;DHT22;3281;47.658;9.166;2024-02-26T00:19:19;7.90;99.90
6496;DHT22;3281;47.658;9.166;2024-02-26T00:21:46;7.90;99.90
6496;DHT22;3281;47.658;9.166;2024-02-26T00:24:13;7.80;99.90
6496;DHT22;3281;47.658;9.166;2024-02-26T00:26:40;7.80;99.90
6496;DHT22;3281;47.658;9.166;2024-02-26T00:29:06;7.80;99.90
6496;DHT22;3281;47.658;9.166;2024-02-26T00:31:33;7.80;99.90
6496;DHT22;3281;47.658;9.166;2024-02-26T00:34:00;7.80;99.90
6496;DHT22;3281;47.658;9.166;2024-02-26T00:36:28;7.80;99.90
6496;DHT22;3281;47.658;9.166;2024-02-26T00:38:55;7.80;99.90
6496;DHT22;3281;47.658;9.166;2024-02-26T00:41:22;7.80;99.90
6496;DHT22;3281;47.658;9.166;2024-02-26T00:43:48;7.80;99.90
6496;DHT22;3281;47.658;9.166;2024-02-26T00:46:15;7.70;99.90
6496;DHT22;3281;47.658;9.166;2024-02-26T00:48:42;7.70;99.90
6496;DHT22;3281;47.658;9.166;2024-02-26T00:51:09;7.70;99.90
6496;DHT22;3281;47.658;9.166;2024-02-26T00:53:37;7.70;99.90
6496;DHT22;3281;47.658;9.166;2024-02-26T00:56:04;7.70;99.90
6496;DHT22;3281;47.658;9.166;2024-02-26T00:58:30;7.70;99.90
6496;DHT22;3281;47.658;9.166;2024-02-26T01:00:58;7.70;99.90
6496;DHT22;3281;47.658;9.166;2024-02-26T01:03:24;7.70;99.90
6496;DHT22;3281;47.658;9.166;2024-02-26T01:05:51;7.70;99.90
6496;DHT22;3281;47.658;9.166;2024-02-26T01:08:18;7.70;99.90
6496;DHT22;3281;47.658;9.166;2024-02-26T01:10:46;7.70;99.90
6496;DHT22;3281;47.658;9.166;2024-02-26T01:13:12;7.70;99.90
6496;DHT22;3281;47.658;9.166;2024-02-26T01:15:39;7.70;99.90
6496;DHT22;3281;47.658;9.166;2024-02-26T01:18:06;7.80;99.90
6496;DHT22;3281;47.658;9.166;2024-02-26T01:20:33;7.80;99.90
6496;DHT22;3281;47.658;9.166;2024-02-26T01:22:59;7.80;99.90
6496;DHT22;3281;47.658;9.166;2024-02-26T01:25:26;7.70;99.90
6496;DHT22;3281;47.658;9.166;2024-02-26T01:27:54;7.70;99.90
6496;DHT22;3281;47.658;9.166;2024-02-26T01:30:21;7.70;99.90
6496;DHT22;3281;47.658;9.166;2024-02-26T01:32:47;7.70;99.90
6496;DHT22;3281;47.658;9.166;2024-02-26T01:35:14;7.70;99.90
6496;DHT22;3281;47.658;9.166;2024-02-26T01:37:41;7.70;99.90
6496;DHT22;3281;47.658;9.166;2024-02-26T01:40:09;7.60;99.90
6496;DHT22;3281;47.658;9.166;2024-02-26T01:42:38;7.70;99.90
6496;DHT22;3281;47.658;9.166;2024-02-26T01:45:09;7.60;99.90
6496;DHT22;3281;47.658;9.166;2024-02-26T01:47:40;7.60;99.90
6496;DHT22;3281;47.658;9.166;2024-02-26T01:50:08;7.50;99.90
6496;DHT22;3281;47.658;9.166;2024-02-26T01:52:35;7.60;99.90
6496;DHT22;3281;47.658;9.166;2024-02-26T01:55:02;7.60;99.90
6496;DHT22;3281;47.658;9.166;2024-02-26T01:57:29;7.70;99.90
6496;DHT22;3281;47.658;9.166;2024-02-26T01:59:56;7.70;99.90
6496;DHT22;3281;47.658;9.166;2024-02-26T02:02:24;7.60;99.90
6496;DHT22;3281;47.658;9.166;2024-02-26T02:04:51;7.70;99.90
6496;DHT22;3281;47.658;9.166;2024-02-26T02:07:19;7.70;99.90
6496;DHT22;3281;47.658;9.166;2024-02-26T02:09:46;7.70;99.90
6496;DHT22;3281;47.658;9.166;2024-02-26T02:12:13;7.70;99.90
6496;DHT22;3281;47.658;9.166;2024-02-26T02:14:40;7.70;99.90
6496;DHT22;3281;47.658;9.166;2024-02-26T02:17:07;7.70;99.90
6496;DHT22;3281;47.658;9.166;2024-02-26T02:19:35;7.60;99.90
6496;DHT22;3281;47.658;9.166;2024-02-26T02:22:04;7.70;99.90
6496;DHT22;3281;47.658;9.166;2024-02-26T02:24:30;7.70;99.90
6496;DHT22;3281;47.658;9.166;2024-02-26T02:26:57;7.70;99.90
6496;DHT22;3281;47.658;9.166;2024-02-26T02:29:24;7.80;99.90
6496;DHT22;3281;47.658;9.166;2024-02-26T02:31:53;7.80;99.90
6496;DHT22;3281;47.658;9.166;2024-02-26T02:34:21;7.90;99.90
6496;DHT22;3281;47.658;9.166;2024-02-26T02:36:52;7.90;99.90
6496;DHT22;3281;47.658;9.166;2024-02-26T02:39:21;7.90;99.90
6496;DHT22;3281;47.658;9.166;2024-02-26T02:41:47;7.90;99.90
6496;DHT22;3281;47.658;9.166;2024-02-26T02:44:14;7.90;99.90
6496;DHT22;3281;47.658;9.166;2024-02-26T02:46:41;7.90;99.90
6496;DHT22;3281;47.658;9.166;2024-02-26T02:49:08;7.80;99.90
6496;DHT22;3281;47.658;9.166;2024-02-26T02:51:36;7.90;99.90
6496;DHT22;3281;47.658;9.166;2024-02-26T02:54:03;7.90;99.90
6496;DHT22;3281;47.658;9.166;2024-02-26T02:56:31;8.00;99.90
6496;DHT22;3281;47.658;9.166;2024-02-26T02:58:57;7.90;99.90
6496;DHT22;3281;47.658;9.166;2024-02-26T03:01:24;7.90;99.90
6496;DHT22;3281;47.658;9.166;2024-02-26T03:03:51;7.90;99.90
6496;DHT22;3281;47.658;9.166;2024-02-26T03:06:17;7.90;99.90
6496;DHT22;3281;47.658;9.166;2024-02-26T03:08:44;8.00;99.90
6496;DHT22;3281;47.658;9.166;2024-02-26T03:11:13;7.90;99.90
6496;DHT22;3281;47.658;9.166;2024-02-26T03:13:41;7.80;99.90
6496;DHT22;3281;47.658;9.166;2024-02-26T03:16:09;7.80;99.90
6496;DHT22;3281;47.658;9.166;2024-02-26T03:18:35;7.80;99.90
6496;DHT22;3281;47.658;9.166;2024-02-26T03:21:02;7.80;99.90
6496;DHT22;3281;47.658;9.166;2024-02-26T03:23:29;7.80;99.90
6496;DHT22;3281;47.658;9.166;2024-02-26T03:25:57;7.80;99.90
6496;DHT22;3281;47.658;9.166;2024-02-26T03:28:24;7.90;99.90
6496;DHT22;3281;47.658;9.166;2024-02-26T03:30:52;8.00;99.90
6496;DHT22;3281;47.658;9.166;2024-02-26T03:33:19;8.00;99.90
6496;DHT22;3281;47.658;9.166;2024-02-26T03:35:45;8.00;99.90
6496;DHT22;3281;47.658;9.166;2024-02-26T03:38:13;8.00;99.90
6496;DHT22;3281;47.658;9.166;2024-02-26T03:40:40;7.90;99.90
6496;DHT22;3281;47.658;9.166;2024-02-26T03:43:06;7.90;99.90
6496;DHT22;3281;47.658;9.166;2024-02-26T03:45:33;7.90;99.90
6496;DHT22;3281;47.658;9.166;2024-02-26T03:48:01;7.90;99.90
6496;DHT22;3281;47.658;9.166;2024-02-26T03:50:28;7.90;99.90
6496;DHT22;3281;47.658;9.166;2024-02-26T03:52:55;7.90;99.90
6496;DHT22;3281;47.658;9.166;2024-02-26T03:55:23;7.90;99.90
6496;DHT22;3281;47.658;9.166;2024-02-26T03:57:50;7.90;99.90
6496;DHT22;3281;47.658;9.166;2024-02-26T04:00:17;7.90;99.90
6496;DHT22;3281;47.658;9.166;2024-02-26T04:02:44;7.90;99.90
6496;DHT22;3281;47.658;9.166;2024-02-26T04:05:13;7.90;99.90
6496;DHT22;3281;47.658;9.166;2024-02-26T04:07:40;7.80;99.90
6496;DHT22;3281;47.658;9.166;2024-02-26T04:10:09;7.80;99.90
6496;DHT22;3281;47.658;9.166;2024-02-26T04:12:37;7.80;99.90
6496;DHT22;3281;47.658;9.166;2024-02-26T04:15:05;7.70;99.90
6496;DHT22;3281;47.658;9.166;2024-02-26T04:17:32;7.60;99.90
6496;DHT22;3281;47.658;9.166;2024-02-26T04:19:59;7.50;99.90
6496;DHT22;3281;47.658;9.166;2024-02-26T04:22:27;7.50;99.90
6496;DHT22;3281;47.658;9.166;2024-02-26T04:24:54;7.50;99.90
6496;DHT22;3281;47.658;9.166;2024-02-26T04:27:21;7.40;99.90
6496;DHT22;3281;47.658;9.166;2024-02-26T04:29:47;7.40;99.90
6496;DHT22;3281;47.658;9.166;2024-02-26T04:32:14;7.30;99.90
6496;DHT22;3281;47.658;9.166;2024-02-26T04:34:41;7.40;99.90
6496;DHT22;3281;47.658;9.166;2024-02-26T04:37:08;7.40;99.90
6496;DHT22;3281;47.658;9.166;2024-02-26T04:39:36;7.40;99.90
6496;DHT22;3281;47.658;9.166;2024-02-26T04:42:03;7.40;99.90
6496;DHT22;3281;47.658;9.166;2024-02-26T04:44:30;7.30;99.90
6496;DHT22;3281;47.658;9.166;2024-02-26T04:46:57;7.40;99.90
6496;DHT22;3281;47.658;9.166;2024-02-26T04:49:23;7.40;99.90
6496;DHT22;3281;47.658;9.166;2024-02-26T04:51:50;7.50;99.90
6496;DHT22;3281;47.658;9.166;2024-02-26T04:54:17;7.50;99.90
6496;DHT22;3281;47.658;9.166;2024-02-26T04:56:45;7.60;99.90
6496;DHT22;3281;47.658;9.166;2024-02-26T04:59:11;7.60;99.90
6496;DHT22;3281;47.658;9.166;2024-02-26T05:01:39;7.60;99.90
6496;DHT22;3281;47.658;9.166;2024-02-26T05:04:06;7.60;99.90
6496;DHT22;3281;47.658;9.166;2024-02-26T05:06:33;7.60;99.90
6496;DHT22;3281;47.658;9.166;2024-02-26T05:09:00;7.60;99.90
6496;DHT22;3281;47.658;9.166;2024-02-26T05:11:27;7.60;99.90
6496;DHT22;3281;47.658;9.166;2024-02-26T05:13:55;7.60;99.90
6496;DHT22;3281;47.658;9.166;2024-02-26T05:16:21;7.60;99.90
6496;DHT22;3281;47.658;9.166;2024-02-26T05:18:50;7.60;99.90
6496;DHT22;3281;47.658;9.166;2024-02-26T05:21:16;7.60;99.90
6496;DHT22;3281;47.658;9.166;2024-02-26T05:23:43;7.60;99.90
6496;DHT22;3281;47.658;9.166;2024-02-26T05:26:11;7.60;99.90
6496;DHT22;3281;47.658;9.166;2024-02-26T05:28:37;7.60;99.90
6496;DHT22;3281;47.658;9.166;2024-02-26T05:31:06;7.60;99.90
6496;DHT22;3281;47.658;9.166;2024-02-26T05:33:33;7.60;99.90
6496;DHT22;3281;47.658;9.166;2024-02-26T05:35:59;7.50;99.90
6496;DHT22;3281;47.658;9.166;2024-02-26T05:38:29;7.50;99.90
6496;DHT22;3281;47.658;9.166;2024-02-26T05:40:57;7.60;99.90
6496;DHT22;3281;47.658;9.166;2024-02-26T05:43:24;7.50;99.90
6496;DHT22;3281;47.658;9.166;2024-02-26T05:45:51;7.40;99.90
6496;DHT22;3281;47.658;9.166;2024-02-26T05:48:19;7.30;99.90
6496;DHT22;3281;47.658;9.166;2024-02-26T05:50:45;7.30;99.90
6496;DHT22;3281;47.658;9.166;2024-02-26T05:53:12;7.30;99.90
6496;DHT22;3281;47.658;9.166;2024-02-26T05:55:39;7.40;99.90
6496;DHT22;3281;47.658;9.166;2024-02-26T05:58:06;7.50;99.90
6496;DHT22;3281;47.658;9.166;2024-02-26T06:00:32;7.60;99.90
6496;DHT22;3281;47.658;9.166;2024-02-26T06:03:00;7.60;99.90
6496;DHT22;3281;47.658;9.166;2024-02-26T06:05:29;7.70;99.90
6496;DHT22;3281;47.658;9.166;2024-02-26T06:07:55;7.80;99.90
6496;DHT22;3281;47.658;9.166;2024-02-26T06:10:22;7.80;99.90
6496;DHT22;3281;47.658;9.166;2024-02-26T06:12:49;7.70;99.90
6496;DHT22;3281;47.658;9.166;2024-02-26T06:15:15;7.80;99.90
6496;DHT22;3281;47.658;9.166;2024-02-26T06:17:42;7.80;99.90
6496;DHT22;3281;47.658;9.166;2024-02-26T06:20:10;7.80;99.90
6496;DHT22;3281;47.658;9.166;2024-02-26T06:22:40;7.70;99.90
6496;DHT22;3281;47.658;9.166;2024-02-26T06:25:07;7.70;99.90
6496;DHT22;3281;47.658;9.166;2024-02-26T06:27:34;7.80;99.90
6496;DHT22;3281;47.658;9.166;2024-02-26T06:30:01;7.90;99.90
6496;DHT22;3281;47.658;9.166;2024-02-26T06:32:28;7.90;99.90
6496;DHT22;3281;47.658;9.166;2024-02-26T06:34:54;7.90;99.90
6496;DHT22;3281;47.658;9.166;2024-02-26T06:37:21;7.90;99.90
6496;DHT22;3281;47.658;9.166;2024-02-26T06:39:50;7.90;99.90
6496;DHT22;3281;47.658;9.166;2024-02-26T06:42:17;7.90;99.90
6496;DHT22;3281;47.658;9.166;2024-02-26T06:44:44;7.90;99.90
6496;DHT22;3281;47.658;9.166;2024-02-26T06:47:10;7.90;99.90
6496;DHT22;3281;47.658;9.166;2024-02-26T06:49:38;7.90;99.90
6496;DHT22;3281;47.658;9.166;2024-02-26T06:52:05;7.90;99.90
6496;DHT22;3281;47.658;9.166;2024-02-26T06:54:32;7.90;99.90
6496;DHT22;3281;47.658;9.166;2024-02-26T06:57:00;7.90;99.90
6496;DHT22;3281;47.658;9.166;2024-02-26T06:59:27;7.90;99.90
6496;DHT22;3281;47.658;9.166;2024-02-26T07:01:53;7.90;99.90
6496;DHT22;3281;47.658;9.166;2024-02-26T07:04:20;8.00;99.90
6496;DHT22;3281;47.658;9.166;2024-02-26T07:06:47;8.00;99.90
6496;DHT22;3281;47.658;9.166;2024-02-26T07:09:14;8.10;99.90
6496;DHT22;3281;47.658;9.166;2024-02-26T07:11:41;8.10;99.90
6496;DHT22;3281;47.658;9.166;2024-02-26T07:14:14;8.10;99.90
6496;DHT22;3281;47.658;9.166;2024-02-26T07:16:40;8.20;99.90
6496;DHT22;3281;47.658;9.166;2024-02-26T07:19:07;8.20;99.90
6496;DHT22;3281;47.658;9.166;2024-02-26T07:21:34;8.30;99.90
6496;DHT22;3281;47.658;9.166;2024-02-26T07:24:00;8.40;99.90
6496;DHT22;3281;47.658;9.166;2024-02-26T07:26:27;8.50;99.90
6496;DHT22;3281;47.658;9.166;2024-02-26T07:28:56;8.60;99.90
6496;DHT22;3281;47.658;9.166;2024-02-26T07:31:24;8.70;99.90
6496;DHT22;3281;47.658;9.166;2024-02-26T07:33:51;8.70;99.90
6496;DHT22;3281;47.658;9.166;2024-02-26T07:36:17;8.80;99.90
6496;DHT22;3281;47.658;9.166;2024-02-26T07:38:44;8.90;99.90
6496;DHT22;3281;47.658;9.166;2024-02-26T07:41:12;8.90;99.90
6496;DHT22;3281;47.658;9.166;2024-02-26T07:43:39;8.90;99.90
6496;DHT22;3281;47.658;9.166;2024-02-26T07:46:06;9.10;99.90
6496;DHT22;3281;47.658;9.166;2024-02-26T07:48:34;9.10;99.90
6496;DHT22;3281;47.658;9.166;2024-02-26T07:51:01;9.20;99.90
6496;DHT22;3281;47.658;9.166;2024-02-26T07:53:28;9.20;99.90
6496;DHT22;3281;47.658;9.166;2024-02-26T07:55:55;9.20;99.90
6496;DHT22;3281;47.658;9.166;2024-02-26T07:58:23;9.20;99.90
6496;DHT22;3281;47.658;9.166;2024-02-26T08:00:50;9.20;99.90
6496;DHT22;3281;47.658;9.166;2024-02-26T08:03:17;9.20;99.90
6496;DHT22;3281;47.658;9.166;2024-02-26T08:05:45;9.30;99.90
6496;DHT22;3281;47.658;9.166;2024-02-26T08:08:12;9.40;99.90
6496;DHT22;3281;47.658;9.166;2024-02-26T08:10:38;9.50;99.90
6496;DHT22;3281;47.658;9.166;2024-02-26T08:13:05;9.60;99.90
6496;DHT22;3281;47.658;9.166;2024-02-26T08:15:32;9.80;99.90
6496;DHT22;3281;47.658;9.166;2024-02-26T08:17:59;9.90;99.90
6496;DHT22;3281;47.658;9.166;2024-02-26T08:20:27;10.00;99.90
6496;DHT22;3281;47.658;9.166;2024-02-26T08:22:56;10.20;99.90
6496;DHT22;3281;47.658;9.166;2024-02-26T08:25:22;10.20;99.90
6496;DHT22;3281;47.658;9.166;2024-02-26T08:27:49;10.40;99.90
6496;DHT22;3281;47.658;9.166;2024-02-26T08:30:16;10.40;99.90
6496;DHT22;3281;47.658;9.166;2024-02-26T08:32:43;10.40;99.90
6496;DHT22;3281;47.658;9.166;2024-02-26T08:35:10;10.50;99.90
6496;DHT22;3281;47.658;9.166;2024-02-26T08:37:37;10.50;99.90
6496;DHT22;3281;47.658;9.166;2024-02-26T08:40:06;10.60;99.90
6496;DHT22;3281;47.658;9.166;2024-02-26T08:42:33;10.60;99.90
6496;DHT22;3281;47.658;9.166;2024-02-26T08:45:00;10.50;99.90
6496;DHT22;3281;47.658;9.166;2024-02-26T08:47:28;10.50;99.90
6496;DHT22;3281;47.658;9.166;2024-02-26T08:49:54;10.40;99.90
6496;DHT22;3281;47.658;9.166;2024-02-26T08:52:21;10.50;99.90
6496;DHT22;3281;47.658;9.166;2024-02-26T08:54:48;10.60;99.90
6496;DHT22;3281;47.658;9.166;2024-02-26T08:57:16;10.60;99.90
6496;DHT22;3281;47.658;9.166;2024-02-26T08:59:43;10.90;99.90
6496;DHT22;3281;47.658;9.166;2024-02-26T09:02:10;11.30;99.90
6496;DHT22;3281;47.658;9.166;2024-02-26T09:04:36;11.70;99.90
6496;DHT22;3281;47.658;9.166;2024-02-26T09:07:03;12.10;99.90
6496;DHT22;3281;47.658;9.166;2024-02-26T09:09:30;12.40;99.90
6496;DHT22;3281;47.658;9.166;2024-02-26T09:11:57;12.60;99.90
6496;DHT22;3281;47.658;9.166;2024-02-26T09:14:25;12.80;99.90
6496;DHT22;3281;47.658;9.166;2024-02-26T09:16:51;12.80;99.90
6496;DHT22;3281;47.658;9.166;2024-02-26T09:19:19;13.00;99.90
6496;DHT22;3281;47.658;9.166;2024-02-26T09:21:45;13.30;99.90
6496;DHT22;3281;47.658;9.166;2024-02-26T09:24:12;13.80;99.90
6496;DHT22;3281;47.658;9.166;2024-02-26T09:26:40;14.00;99.90
6496;DHT22;3281;47.658;9.166;2024-02-26T09:29:07;14.00;99.90
6496;DHT22;3281;47.658;9.166;2024-02-26T09:31:35;13.80;99.90
6496;DHT22;3281;47.658;9.166;2024-02-26T09:34:02;13.80;99.90
6496;DHT22;3281;47.658;9.166;2024-02-26T09:36:29;14.20;99.90
6496;DHT22;3281;47.658;9.166;2024-02-26T09:38:56;14.80;99.90
6496;DHT22;3281;47.658;9.166;2024-02-26T09:41:23;15.40;99.90
6496;DHT22;3281;47.658;9.166;2024-02-26T09:43:52;15.40;99.90
6496;DHT22;3281;47.658;9.166;2024-02-26T09:46:22;14.70;99.90
6496;DHT22;3281;47.658;9.166;2024-02-26T09:48:51;14.20;99.90
6496;DHT22;3281;47.658;9.166;2024-02-26T09:51:18;13.60;99.90
6496;DHT22;3281;47.658;9.166;2024-02-26T09:53:47;13.40;99.90
6496;DHT22;3281;47.658;9.166;2024-02-26T09:56:15;13.10;99.90
6496;DHT22;3281;47.658;9.166;2024-02-26T09:58:42;12.80;99.90
6496;DHT22;3281;47.658;9.166;2024-02-26T10:01:13;12.60;99.90
6496;DHT22;3281;47.658;9.166;2024-02-26T10:03:42;12.30;99.90
6496;DHT22;3281;47.658;9.166;2024-02-26T10:06:11;12.10;99.90
6496;DHT22;3281;47.658;9.166;2024-02-26T10:08:38;12.10;99.90
6496;DHT22;3281;47.658;9.166;2024-02-26T10:11:07;12.30;99.90
6496;DHT22;3281;47.658;9.166;2024-02-26T10:13:34;12.40;99.90
6496;DHT22;3281;47.658;9.166;2024-02-26T10:16:00;12.50;99.90
6496;DHT22;3281;47.658;9.166;2024-02-26T10:18:45;12.60;99.90
6496;DHT22;3281;47.658;9.166;2024-02-26T10:21:13;12.70;99.90
6496;DHT22;3281;47.658;9.166;2024-02-26T10:23:41;12.70;99.90
6496;DHT22;3281;47.658;9.166;2024-02-26T10:26:10;12.70;99.90
6496;DHT22;3281;47.658;9.166;2024-02-26T10:28:38;12.70;99.90
6496;DHT22;3281;47.658;9.166;2024-02-26T10:31:05;12.70;99.90
6496;DHT22;3281;47.658;9.166;2024-02-26T10:33:33;12.80;99.90
6496;DHT22;3281;47.658;9.166;2024-02-26T10:36:01;12.70;99.90
6496;DHT22;3281;47.658;9.166;2024-02-26T10:38:29;12.70;99.90
6496;DHT22;3281;47.658;9.166;2024-02-26T10:40:56;12.50;99.90
6496;DHT22;3281;47.658;9.166;2024-02-26T10:43:23;12.70;99.90
6496;DHT22;3281;47.658;9.166;2024-02-26T10:45:49;12.50;99.90
6496;DHT22;3281;47.658;9.166;2024-02-26T10:48:16;12.50;99.90
6496;DHT22;3281;47.658;9.166;2024-02-26T10:50:44;12.50;99.90
6496;DHT22;3281;47.658;9.166;2024-02-26T10:53:13;12.50;99.90
6496;DHT22;3281;47.658;9.166;2024-02-26T10:55:44;12.40;99.90
6496;DHT22;3281;47.658;9.166;2024-02-26T10:58:13;12.40;99.90
6496;DHT22;3281;47.658;9.166;2024-02-26T11:00:41;12.30;99.90
6496;DHT22;3281;47.658;9.166;2024-02-26T11:03:09;12.30;99.90
6496;DHT22;3281;47.658;9.166;2024-02-26T11:05:37;12.10;99.90
6496;DHT22;3281;47.658;9.166;2024-02-26T11:08:05;12.00;99.90
6496;DHT22;3281;47.658;9.166;2024-02-26T11:10:32;11.90;99.90
6496;DHT22;3281;47.658;9.166;2024-02-26T11:13:01;11.90;99.90
6496;DHT22;3281;47.658;9.166;2024-02-26T11:15:29;11.90;99.90
6496;DHT22;3281;47.658;9.166;2024-02-26T11:17:58;11.80;99.90
6496;DHT22;3281;47.658;9.166;2024-02-26T11:20:28;11.80;99.90
6496;DHT22;3281;47.658;9.166;2024-02-26T11:22:56;11.80;99.90
6496;DHT22;3281;47.658;9.166;2024-02-26T11:25:23;11.90;99.90
6496;DHT22;3281;47.658;9.166;2024-02-26T11:27:52;11.90;99.90
6496;DHT22;3281;47.658;9.166;2024-02-26T11:30:22;11.90;99.90
6496;DHT22;3281;47.658;9.166;2024-02-26T11:32:51;11.90;99.90
6496;DHT22;3281;47.658;9.166;2024-02-26T11:35:19;12.00;99.90
6496;DHT22;3281;47.658;9.166;2024-02-26T11:37:53;12.10;99.90
6496;DHT22;3281;47.658;9.166;2024-02-26T11:40:22;12.10;99.90
6496;DHT22;3281;47.658;9.166;2024-02-26T11:42:50;12.10;99.90
6496;DHT22;3281;47.658;9.166;2024-02-26T11:45:53;12.10;99.90
6496;DHT22;3281;47.658;9.166;2024-02-26T11:48:24;12.10;99.90
6496;DHT22;3281;47.658;9.166;2024-02-26T11:50:52;12.10;99.90
6496;DHT22;3281;47.658;9.166;2024-02-26T11:53:20;12.30;99.90
6496;DHT22;3281;47.658;9.166;2024-02-26T11:55:47;12.20;99.90
6496;DHT22;3281;47.658;9.166;2024-02-26T11:58:13;12.10;99.90
6496;DHT22;3281;47.658;9.166;2024-02-26T12:00:40;12.20;99.90
6496;DHT22;3281;47.658;9.166;2024-02-26T12:03:08;12.40;99.90
6496;DHT22;3281;47.658;9.166;2024-02-26T12:05:37;12.50;99.90
6496;DHT22;3281;47.658;9.166;2024-02-26T12:08:06;12.60;99.90
6496;DHT22;3281;47.658;9.166;2024-02-26T12:10:35;12.70;99.90
6496;DHT22;3281;47.658;9.166;2024-02-26T12:13:06;12.80;99.90
6496;DHT22;3281;47.658;9.166;2024-02-26T12:15:36;12.80;99.90
6496;DHT22;3281;47.658;9.166;2024-02-26T12:18:05;12.80;99.90
6496;DHT22;3281;47.658;9.166;2024-02-26T12:20:34;12.80;99.90
6496;DHT22;3281;47.658;9.166;2024-02-26T12:23:02;12.70;99.90
6496;DHT22;3281;47.658;9.166;2024-02-26T12:25:30;13.00;99.90
6496;DHT22;3281;47.658;9.166;2024-02-26T12:27:57;12.90;99.90
6496;DHT22;3281;47.658;9.166;2024-02-26T12:30:25;12.80;99.90
6496;DHT22;3281;47.658;9.166;2024-02-26T12:32:53;13.00;99.90
6496;DHT22;3281;47.658;9.166;2024-02-26T12:35:22;13.00;99.90
6496;DHT22;3281;47.658;9.166;2024-02-26T12:37:52;13.20;99.90
6496;DHT22;3281;47.658;9.166;2024-02-26T12:40:19;13.30;99.90
6496;DHT22;3281;47.658;9.166;2024-02-26T12:42:46;13.50;99.90
6496;DHT22;3281;47.658;9.166;2024-02-26T12:45:14;13.40;99.90
6496;DHT22;3281;47.658;9.166;2024-02-26T12:47:42;13.50;99.90
6496;DHT22;3281;47.658;9.166;2024-02-26T12:50:11;13.60;99.90
6496;DHT22;3281;47.658;9.166;2024-02-26T12:52:40;13.70;99.90
6496;DHT22;3281;47.658;9.166;2024-02-26T12:55:09;13.80;99.90
6496;DHT22;3281;47.658;9.166;2024-02-26T12:57:38;13.90;99.90
6496;DHT22;3281;47.658;9.166;2024-02-26T13:00:07;14.00;99.90
6496;DHT22;3281;47.658;9.166;2024-02-26T13:02:35;14.00;99.90
6496;DHT22;3281;47.658;9.166;2024-02-26T13:05:03;14.10;99.90
6496;DHT22;3281;47.658;9.166;2024-02-26T13:07:30;14.20;99.90
6496;DHT22;3281;47.658;9.166;2024-02-26T13:09:56;14.30;99.90
6496;DHT22;3281;47.658;9.166;2024-02-26T13:12:25;14.30;99.90
6496;DHT22;3281;47.658;9.166;2024-02-26T13:14:59;14.40;99.90
6496;DHT22;3281;47.658;9.166;2024-02-26T13:17:26;14.50;99.90
6496;DHT22;3281;47.658;9.166;2024-02-26T13:19:53;14.70;99.90
6496;DHT22;3281;47.658;9.166;2024-02-26T13:22:21;14.90;99.90
6496;DHT22;3281;47.658;9.166;2024-02-26T13:24:53;14.80;99.90
6496;DHT22;3281;47.658;9.166;2024-02-26T13:27:21;15.00;99.90
6496;DHT22;3281;47.658;9.166;2024-02-26T13:30:02;15.00;99.90
6496;DHT22;3281;47.658;9.166;2024-02-26T13:32:32;15.00;99.90
6496;DHT22;3281;47.658;9.166;2024-02-26T13:35:05;14.70;99.90
6496;DHT22;3281;47.658;9.166;2024-02-26T13:37:32;14.60;99.90
6496;DHT22;3281;47.658;9.166;2024-02-26T13:39:59;14.50;99.90
6496;DHT22;3281;47.658;9.166;2024-02-26T13:42:29;14.40;99.90
6496;DHT22;3281;47.658;9.166;2024-02-26T13:44:57;14.40;99.90
6496;DHT22;3281;47.658;9.166;2024-02-26T13:47:24;14.40;99.90
6496;DHT22;3281;47.658;9.166;2024-02-26T13:49:51;14.40;99.90
6496;DHT22;3281;47.658;9.166;2024-02-26T13:52:18;14.40;99.90
6496;DHT22;3281;47.658;9.166;2024-02-26T13:54:45;14.40;99.90
6496;DHT22;3281;47.658;9.166;2024-02-26T13:57:12;15.00;99.90
6496;DHT22;3281;47.658;9.166;2024-02-26T13:59:39;14.40;99.90
6496;DHT22;3281;47.658;9.166;2024-02-26T14:02:09;14.40;99.90
6496;DHT22;3281;47.658;9.166;2024-02-26T14:04:36;14.10;99.90
6496;DHT22;3281;47.658;9.166;2024-02-26T14:07:03;14.00;99.90
6496;DHT22;3281;47.658;9.166;2024-02-26T14:09:30;13.80;99.90
6496;DHT22;3281;47.658;9.166;2024-02-26T14:11:57;13.50;99.90
6496;DHT22;3281;47.658;9.166;2024-02-26T14:14:24;13.30;99.90
6496;DHT22;3281;47.658;9.166;2024-02-26T14:16:51;13.10;99.90
6496;DHT22;3281;47.658;9.166;2024-02-26T14:19:19;13.00;99.90
6496;DHT22;3281;47.658;9.166;2024-02-26T14:21:46;12.90;99.90
6496;DHT22;3281;47.658;9.166;2024-02-26T14:24:12;12.80;99.90
6496;DHT22;3281;47.658;9.166;2024-02-26T14:26:40;12.80;99.90
6496;DHT22;3281;47.658;9.166;2024-02-26T14:29:07;12.80;99.90
6496;DHT22;3281;47.658;9.166;2024-02-26T14:31:33;12.80;99.90
6496;DHT22;3281;47.658;9.166;2024-02-26T14:34:01;12.70;99.90
6496;DHT22;3281;47.658;9.166;2024-02-26T14:36:29;12.60;99.90
6496;DHT22;3281;47.658;9.166;2024-02-26T14:38:55;12.70;99.90
6496;DHT22;3281;47.658;9.166;2024-02-26T14:41:22;12.60;99.90
6496;DHT22;3281;47.658;9.166;2024-02-26T14:43:49;12.50;99.90
6496;DHT22;3281;47.658;9.166;2024-02-26T14:46:15;12.40;99.90
6496;DHT22;3281;47.658;9.166;2024-02-26T14:48:42;12.40;99.90
6496;DHT22;3281;47.658;9.166;2024-02-26T14:51:09;12.40;99.90
6496;DHT22;3281;47.658;9.166;2024-02-26T14:53:37;12.30;99.90
6496;DHT22;3281;47.658;9.166;2024-02-26T14:56:04;12.30;99.90
6496;DHT22;3281;47.658;9.166;2024-02-26T14:58:31;12.30;99.90
6496;DHT22;3281;47.658;9.166;2024-02-26T15:00:57;12.30;99.90
6496;DHT22;3281;47.658;9.166;2024-02-26T15:03:24;12.30;99.90
6496;DHT22;3281;47.658;9.166;2024-02-26T15:05:51;12.30;99.90
6496;DHT22;3281;47.658;9.166;2024-02-26T15:08:18;12.30;99.90
6496;DHT22;3281;47.658;9.166;2024-02-26T15:10:46;12.30;99.90
6496;DHT22;3281;47.658;9.166;2024-02-26T15:13:13;12.20;99.90
6496;DHT22;3281;47.658;9.166;2024-02-26T15:15:40;12.20;99.90
6496;DHT22;3281;47.658;9.166;2024-02-26T15:18:07;11.80;99.90
6496;DHT22;3281;47.658;9.166;2024-02-26T15:20:36;12.20;99.90
6496;DHT22;3281;47.658;9.166;2024-02-26T15:23:04;12.20;99.90
6496;DHT22;3281;47.658;9.166;2024-02-26T15:25:30;12.20;99.90
6496;DHT22;3281;47.658;9.166;2024-02-26T15:27:58;12.20;99.90
6496;DHT22;3281;47.658;9.166;2024-02-26T15:30:25;12.20;99.90
6496;DHT22;3281;47.658;9.166;2024-02-26T15:32:52;12.20;99.90
6496;DHT22;3281;47.658;9.166;2024-02-26T15:35:20;12.10;99.90
6496;DHT22;3281;47.658;9.166;2024-02-26T15:37:47;12.10;99.90
6496;DHT22;3281;47.658;9.166;2024-02-26T15:40:14;12.10;99.90
6496;DHT22;3281;47.658;9.166;2024-02-26T15:42:41;12.10;99.90
6496;DHT22;3281;47.658;9.166;2024-02-26T15:45:09;12.10;99.90
6496;DHT22;3281;47.658;9.166;2024-02-26T15:47:36;12.10;99.90
6496;DHT22;3281;47.658;9.166;2024-02-26T15:50:03;12.00;99.90
6496;DHT22;3281;47.658;9.166;2024-02-26T15:52:30;12.00;99.90
6496;DHT22;3281;47.658;9.166;2024-02-26T15:54:57;12.00;99.90
6496;DHT22;3281;47.658;9.166;2024-02-26T15:57:24;12.00;99.90
6496;DHT22;3281;47.658;9.166;2024-02-26T15:59:50;12.00;99.90
6496;DHT22;3281;47.658;9.166;2024-02-26T16:02:20;12.00;99.90
6496;DHT22;3281;47.658;9.166;2024-02-26T16:04:47;11.90;99.90
6496;DHT22;3281;47.658;9.166;2024-02-26T16:07:23;11.90;99.90
6496;DHT22;3281;47.658;9.166;2024-02-26T16:09:51;11.80;99.90
6496;DHT22;3281;47.658;9.166;2024-02-26T16:12:23;11.80;99.90